sensor_id;sensor_type;location;lat;lon;timestamp;pressure;altitude;pressure_sealevel;temperature;humidity
23118;BME280;11728;50.624;6.014;2022-11-02T00:03:18;98325.53;;;12.96;76.83
23118;BME280;11728;50.624;6.014;2022-11-02T00:08:39;98336.25;;;12.93;76.76
23118;BME280;11728;50.624;6.014;2022-11-02T00:14:00;98338.28;;;12.84;76.87
23118;BME280;11728;50.624;6.014;2022-11-02T00:19:21;98340.00;;;12.86;77.17
23118;BME280;11728;50.624;6.014;2022-11-02T00:24:42;98344.34;;;12.87;77.07
23118;BME280;11728;50.624;6.014;2022-11-02T00:30:03;98340.41;;;13.02;77.09
23118;BME280;11728;50.624;6.014;2022-11-02T00:35:24;98343.75;;;13.06;76.74
23118;BME280;11728;50.624;6.014;2022-11-02T00:40:45;98356.22;;;13.05;77.05
23118;BME280;11728;50.624;6.014;2022-11-02T00:46:05;98366.56;;;13.12;77.11
23118;BME280;11728;50.624;6.014;2022-11-02T00:51:26;98360.09;;;13.20;76.60
23118;BME280;11728;50.624;6.014;2022-11-02T00:56:47;98331.59;;;13.27;76.51
23118;BME280;11728;50.624;6.014;2022-11-02T01:02:08;98360.44;;;13.37;75.89
23118;BME280;11728;50.624;6.014;2022-11-02T01:07:30;98366.28;;;13.47;75.69
23118;BME280;11728;50.624;6.014;2022-11-02T01:12:51;98365.50;;;13.45;75.59
23118;BME280;11728;50.624;6.014;2022-11-02T01:18:12;98369.00;;;13.45;75.51
23118;BME280;11728;50.624;6.014;2022-11-02T01:23:34;98359.88;;;13.28;76.06
23118;BME280;11728;50.624;6.014;2022-11-02T01:28:55;98372.41;;;13.23;76.36
23118;BME280;11728;50.624;6.014;2022-11-02T01:34:16;98356.94;;;13.37;76.25
23118;BME280;11728;50.624;6.014;2022-11-02T01:39:37;98361.34;;;13.36;76.06
23118;BME280;11728;50.624;6.014;2022-11-02T01:44:58;98379.06;;;13.36;76.14
23118;BME280;11728;50.624;6.014;2022-11-02T01:50:24;98370.56;;;13.25;76.42
23118;BME280;11728;50.624;6.014;2022-11-02T01:55:46;98367.41;;;13.14;76.48
23118;BME280;11728;50.624;6.014;2022-11-02T02:01:08;98371.34;;;13.01;77.57
23118;BME280;11728;50.624;6.014;2022-11-02T02:06:29;98376.66;;;13.01;77.90
23118;BME280;11728;50.624;6.014;2022-11-02T02:11:51;98379.81;;;13.12;77.68
23118;BME280;11728;50.624;6.014;2022-11-02T02:17:37;98377.09;;;13.15;77.85
23118;BME280;11728;50.624;6.014;2022-11-02T02:39:39;98377.13;;;13.13;77.43
23118;BME280;11728;50.624;6.014;2022-11-02T02:50:50;98388.31;;;12.96;77.81
23118;BME280;11728;50.624;6.014;2022-11-02T02:56:15;98394.72;;;12.87;77.70
23118;BME280;11728;50.624;6.014;2022-11-02T03:01:41;98392.91;;;12.89;77.50
23118;BME280;11728;50.624;6.014;2022-11-02T03:07:08;98409.81;;;12.85;77.28
23118;BME280;11728;50.624;6.014;2022-11-02T03:12:45;98413.13;;;12.93;76.88
23118;BME280;11728;50.624;6.014;2022-11-02T03:23:41;98417.91;;;12.79;77.03
23118;BME280;11728;50.624;6.014;2022-11-02T03:34:47;98450.13;;;12.66;77.00
23118;BME280;11728;50.624;6.014;2022-11-02T03:45:47;98468.06;;;12.56;77.83
23118;BME280;11728;50.624;6.014;2022-11-02T03:51:12;98467.00;;;12.63;77.68
23118;BME280;11728;50.624;6.014;2022-11-02T04:01:58;98485.06;;;12.48;78.50
23118;BME280;11728;50.624;6.014;2022-11-02T04:07:26;98501.13;;;12.42;79.09
23118;BME280;11728;50.624;6.014;2022-11-02T04:13:11;98506.53;;;12.37;79.21
23118;BME280;11728;50.624;6.014;2022-11-02T04:18:51;98515.22;;;12.42;79.11
23118;BME280;11728;50.624;6.014;2022-11-02T04:24:32;98519.22;;;12.58;78.21
23118;BME280;11728;50.624;6.014;2022-11-02T04:30:14;98528.84;;;12.62;77.85
23118;BME280;11728;50.624;6.014;2022-11-02T04:35:35;98535.78;;;12.66;77.69
23118;BME280;11728;50.624;6.014;2022-11-02T04:40:59;98545.56;;;12.64;77.60
23118;BME280;11728;50.624;6.014;2022-11-02T04:46:43;98562.56;;;12.56;78.07
23118;BME280;11728;50.624;6.014;2022-11-02T04:52:04;98559.97;;;12.54;78.15
23118;BME280;11728;50.624;6.014;2022-11-02T04:57:27;98572.59;;;12.43;78.75
23118;BME280;11728;50.624;6.014;2022-11-02T05:02:49;98573.72;;;12.35;79.10
23118;BME280;11728;50.624;6.014;2022-11-02T05:08:12;98588.47;;;12.45;78.80
23118;BME280;11728;50.624;6.014;2022-11-02T05:13:34;98605.97;;;12.50;78.66
23118;BME280;11728;50.624;6.014;2022-11-02T05:18:56;98593.56;;;12.52;78.60
23118;BME280;11728;50.624;6.014;2022-11-02T05:24:18;98590.22;;;12.44;78.56
23118;BME280;11728;50.624;6.014;2022-11-02T05:29:39;98608.31;;;12.27;79.13
23118;BME280;11728;50.624;6.014;2022-11-02T05:35:00;98616.75;;;12.08;80.11
23118;BME280;11728;50.624;6.014;2022-11-02T05:40:22;98627.44;;;12.04;80.40
23118;BME280;11728;50.624;6.014;2022-11-02T05:45:43;98638.63;;;12.15;80.00
23118;BME280;11728;50.624;6.014;2022-11-02T05:51:04;98633.28;;;12.18;79.53
23118;BME280;11728;50.624;6.014;2022-11-02T05:56:25;98642.88;;;12.23;79.54
23118;BME280;11728;50.624;6.014;2022-11-02T06:01:46;98648.97;;;12.27;79.56
23118;BME280;11728;50.624;6.014;2022-11-02T06:07:07;98654.16;;;12.29;79.79
23118;BME280;11728;50.624;6.014;2022-11-02T06:12:28;98664.75;;;12.29;79.63
23118;BME280;11728;50.624;6.014;2022-11-02T06:17:49;98664.75;;;12.31;79.60
23118;BME280;11728;50.624;6.014;2022-11-02T06:23:11;98681.75;;;12.21;79.85
23118;BME280;11728;50.624;6.014;2022-11-02T06:28:34;98688.97;;;12.13;80.15
23118;BME280;11728;50.624;6.014;2022-11-02T06:33:55;98700.72;;;12.02;80.88
23118;BME280;11728;50.624;6.014;2022-11-02T06:39:16;98717.50;;;12.01;81.25
23118;BME280;11728;50.624;6.014;2022-11-02T06:44:37;98721.00;;;12.03;81.24
23118;BME280;11728;50.624;6.014;2022-11-02T06:49:58;98738.75;;;11.96;81.20
23118;BME280;11728;50.624;6.014;2022-11-02T06:55:19;98739.03;;;11.84;81.46
23118;BME280;11728;50.624;6.014;2022-11-02T07:00:40;98749.00;;;11.72;82.13
23118;BME280;11728;50.624;6.014;2022-11-02T07:06:01;98747.28;;;11.69;82.13
23118;BME280;11728;50.624;6.014;2022-11-02T07:11:23;98758.81;;;12.08;81.76
23118;BME280;11728;50.624;6.014;2022-11-02T07:16:44;98771.19;;;12.84;79.16
23118;BME280;11728;50.624;6.014;2022-11-02T07:22:05;98781.97;;;13.13;76.15
23118;BME280;11728;50.624;6.014;2022-11-02T07:27:25;98774.75;;;13.19;75.82
23118;BME280;11728;50.624;6.014;2022-11-02T07:32:46;98798.09;;;12.68;76.89
23118;BME280;11728;50.624;6.014;2022-11-02T07:38:08;98807.72;;;12.32;77.92
23118;BME280;11728;50.624;6.014;2022-11-02T07:43:29;98812.78;;;12.01;79.31
23118;BME280;11728;50.624;6.014;2022-11-02T07:49:05;98821.63;;;12.01;80.31
23118;BME280;11728;50.624;6.014;2022-11-02T07:54:26;98817.34;;;13.47;77.91
23118;BME280;11728;50.624;6.014;2022-11-02T07:59:47;98825.16;;;15.03;70.75
23118;BME280;11728;50.624;6.014;2022-11-02T08:05:08;98811.16;;;16.48;64.93
23118;BME280;11728;50.624;6.014;2022-11-02T08:10:30;98818.66;;;16.85;61.48
23118;BME280;11728;50.624;6.014;2022-11-02T08:15:52;98811.81;;;17.83;57.65
23118;BME280;11728;50.624;6.014;2022-11-02T08:21:13;98826.00;;;18.45;56.06
23118;BME280;11728;50.624;6.014;2022-11-02T08:26:34;98825.63;;;19.27;54.45
23118;BME280;11728;50.624;6.014;2022-11-02T08:31:55;98818.91;;;19.54;50.87
23118;BME280;11728;50.624;6.014;2022-11-02T08:37:15;98848.88;;;19.62;50.75
23118;BME280;11728;50.624;6.014;2022-11-02T08:42:36;98841.97;;;20.25;49.56
23118;BME280;11728;50.624;6.014;2022-11-02T08:47:58;98855.66;;;21.02;47.89
23118;BME280;11728;50.624;6.014;2022-11-02T08:53:19;98869.88;;;21.20;47.03
23118;BME280;11728;50.624;6.014;2022-11-02T08:58:40;98863.69;;;20.87;47.53
23118;BME280;11728;50.624;6.014;2022-11-02T09:04:01;98874.19;;;19.38;48.46
23118;BME280;11728;50.624;6.014;2022-11-02T09:09:22;98878.34;;;17.03;53.75
23118;BME280;11728;50.624;6.014;2022-11-02T09:14:43;98867.06;;;18.44;51.97
23118;BME280;11728;50.624;6.014;2022-11-02T09:20:04;98860.66;;;17.01;54.43
23118;BME280;11728;50.624;6.014;2022-11-02T09:25:25;98875.88;;;16.29;56.89
23118;BME280;11728;50.624;6.014;2022-11-02T09:30:46;98880.56;;;15.71;58.89
23118;BME280;11728;50.624;6.014;2022-11-02T09:36:07;98877.47;;;15.58;60.29
23118;BME280;11728;50.624;6.014;2022-11-02T09:41:42;98877.66;;;15.52;61.38
23118;BME280;11728;50.624;6.014;2022-11-02T09:47:08;98885.34;;;16.37;60.11
23118;BME280;11728;50.624;6.014;2022-11-02T09:52:36;98876.91;;;19.90;51.96
23118;BME280;11728;50.624;6.014;2022-11-02T09:58:10;98877.38;;;21.46;48.00
23118;BME280;11728;50.624;6.014;2022-11-02T10:09:28;98875.31;;;23.65;43.55
23118;BME280;11728;50.624;6.014;2022-11-02T10:15:04;98871.91;;;24.28;41.47
23118;BME280;11728;50.624;6.014;2022-11-02T10:20:36;98877.28;;;24.04;41.42
23118;BME280;11728;50.624;6.014;2022-11-02T10:26:00;98881.16;;;24.12;39.33
23118;BME280;11728;50.624;6.014;2022-11-02T10:31:28;98888.16;;;24.41;38.69
23118;BME280;11728;50.624;6.014;2022-11-02T10:37:07;98881.44;;;24.34;38.09
23118;BME280;11728;50.624;6.014;2022-11-02T10:48:39;98871.59;;;24.33;37.45
23118;BME280;11728;50.624;6.014;2022-11-02T10:54:11;98878.56;;;24.49;37.45
23118;BME280;11728;50.624;6.014;2022-11-02T10:59:33;98883.81;;;24.65;38.21
23118;BME280;11728;50.624;6.014;2022-11-02T11:05:10;98887.69;;;25.71;35.92
23118;BME280;11728;50.624;6.014;2022-11-02T11:10:36;98879.03;;;26.94;34.00
23118;BME280;11728;50.624;6.014;2022-11-02T11:15:57;98865.53;;;27.48;33.25
23118;BME280;11728;50.624;6.014;2022-11-02T11:21:18;98869.75;;;27.63;32.64
23118;BME280;11728;50.624;6.014;2022-11-02T11:26:39;98860.59;;;28.06;31.83
23118;BME280;11728;50.624;6.014;2022-11-02T11:32:01;98858.09;;;28.25;31.32
23118;BME280;11728;50.624;6.014;2022-11-02T11:37:23;98854.06;;;27.67;31.42
23118;BME280;11728;50.624;6.014;2022-11-02T11:42:47;98854.44;;;26.28;32.75
23118;BME280;11728;50.624;6.014;2022-11-02T11:48:26;98861.44;;;24.87;34.95
23118;BME280;11728;50.624;6.014;2022-11-02T11:59:46;98862.69;;;20.23;39.61
23118;BME280;11728;50.624;6.014;2022-11-02T12:05:12;98860.22;;;19.50;41.10
23118;BME280;11728;50.624;6.014;2022-11-02T12:22:15;98817.28;;;24.99;35.10
23118;BME280;11728;50.624;6.014;2022-11-02T12:27:48;98806.97;;;26.12;34.17
23118;BME280;11728;50.624;6.014;2022-11-02T12:33:25;98812.78;;;24.87;33.79
23118;BME280;11728;50.624;6.014;2022-11-02T12:39:06;98798.28;;;24.00;35.15
23118;BME280;11728;50.624;6.014;2022-11-02T12:44:37;98789.44;;;24.86;33.68
23118;BME280;11728;50.624;6.014;2022-11-02T12:50:10;98780.03;;;25.63;31.94
23118;BME280;11728;50.624;6.014;2022-11-02T12:55:54;98790.06;;;25.51;31.50
23118;BME280;11728;50.624;6.014;2022-11-02T13:01:37;98790.97;;;24.66;32.17
23118;BME280;11728;50.624;6.014;2022-11-02T13:07:04;98797.56;;;23.45;32.55
23118;BME280;11728;50.624;6.014;2022-11-02T13:12:31;98786.59;;;22.09;33.71
23118;BME280;11728;50.624;6.014;2022-11-02T13:17:56;98794.81;;;20.86;35.88
23118;BME280;11728;50.624;6.014;2022-11-02T13:29:12;98779.63;;;20.70;37.55
23118;BME280;11728;50.624;6.014;2022-11-02T13:34:45;98767.25;;;22.32;35.74
23118;BME280;11728;50.624;6.014;2022-11-02T13:40:41;98772.84;;;22.00;36.63
23118;BME280;11728;50.624;6.014;2022-11-02T13:51:50;98754.66;;;22.60;35.14
23118;BME280;11728;50.624;6.014;2022-11-02T14:08:47;98750.16;;;21.45;35.82
23118;BME280;11728;50.624;6.014;2022-11-02T14:25:13;98753.69;;;19.01;40.11
23118;BME280;11728;50.624;6.014;2022-11-02T14:30:39;98749.22;;;18.28;41.13
23118;BME280;11728;50.624;6.014;2022-11-02T14:47:17;98756.50;;;18.05;41.36
23118;BME280;11728;50.624;6.014;2022-11-02T14:52:40;98737.47;;;17.73;41.76
23118;BME280;11728;50.624;6.014;2022-11-02T15:25:41;98703.19;;;16.37;45.05
23118;BME280;11728;50.624;6.014;2022-11-02T15:31:16;98717.19;;;16.19;45.80
23118;BME280;11728;50.624;6.014;2022-11-02T15:36:41;98715.97;;;16.05;46.04
23118;BME280;11728;50.624;6.014;2022-11-02T15:42:11;98717.41;;;15.90;46.44
23118;BME280;11728;50.624;6.014;2022-11-02T16:04:32;98693.31;;;14.68;49.12
23118;BME280;11728;50.624;6.014;2022-11-02T16:10:09;98698.69;;;14.41;49.80
23118;BME280;11728;50.624;6.014;2022-11-02T16:15:31;98683.34;;;14.22;50.44
23118;BME280;11728;50.624;6.014;2022-11-02T16:20:59;98684.84;;;14.01;51.35
23118;BME280;11728;50.624;6.014;2022-11-02T16:26:24;98676.66;;;13.79;51.57
23118;BME280;11728;50.624;6.014;2022-11-02T16:31:46;98689.84;;;13.53;52.79
23118;BME280;11728;50.624;6.014;2022-11-02T16:37:12;98683.19;;;13.37;53.49
23118;BME280;11728;50.624;6.014;2022-11-02T16:42:34;98678.31;;;13.22;54.04
23118;BME280;11728;50.624;6.014;2022-11-02T16:47:56;98684.03;;;13.07;54.73
23118;BME280;11728;50.624;6.014;2022-11-02T16:53:26;98679.91;;;12.96;55.67
23118;BME280;11728;50.624;6.014;2022-11-02T16:58:49;98677.44;;;12.88;55.85
23118;BME280;11728;50.624;6.014;2022-11-02T17:09:38;98683.25;;;12.67;56.85
23118;BME280;11728;50.624;6.014;2022-11-02T17:15:02;98681.81;;;12.54;57.55
23118;BME280;11728;50.624;6.014;2022-11-02T17:20:24;98684.78;;;12.41;57.94
23118;BME280;11728;50.624;6.014;2022-11-02T17:25:45;98685.03;;;12.30;58.53
23118;BME280;11728;50.624;6.014;2022-11-02T17:31:15;98681.69;;;12.23;58.81
23118;BME280;11728;50.624;6.014;2022-11-02T17:36:41;98695.03;;;12.20;59.10
23118;BME280;11728;50.624;6.014;2022-11-02T17:42:03;98688.00;;;12.17;59.17
23118;BME280;11728;50.624;6.014;2022-11-02T17:47:42;98679.47;;;12.05;59.34
23118;BME280;11728;50.624;6.014;2022-11-02T17:53:04;98667.28;;;11.98;60.17
23118;BME280;11728;50.624;6.014;2022-11-02T17:58:25;98667.41;;;11.93;60.23
23118;BME280;11728;50.624;6.014;2022-11-02T18:03:46;98654.13;;;11.95;60.84
23118;BME280;11728;50.624;6.014;2022-11-02T18:09:07;98642.47;;;12.02;61.17
23118;BME280;11728;50.624;6.014;2022-11-02T18:14:31;98642.63;;;11.96;61.58
23118;BME280;11728;50.624;6.014;2022-11-02T18:19:51;98648.06;;;11.90;62.16
23118;BME280;11728;50.624;6.014;2022-11-02T18:25:14;98656.91;;;11.89;62.25
23118;BME280;11728;50.624;6.014;2022-11-02T18:30:35;98645.53;;;11.84;62.42
23118;BME280;11728;50.624;6.014;2022-11-02T18:36:07;98645.63;;;11.81;63.14
23118;BME280;11728;50.624;6.014;2022-11-02T18:41:28;98636.78;;;11.80;63.42
23118;BME280;11728;50.624;6.014;2022-11-02T18:46:50;98648.25;;;11.81;63.74
23118;BME280;11728;50.624;6.014;2022-11-02T18:52:11;98641.16;;;11.83;64.16
23118;BME280;11728;50.624;6.014;2022-11-02T18:57:34;98628.84;;;11.82;64.33
23118;BME280;11728;50.624;6.014;2022-11-02T19:02:55;98619.09;;;11.82;65.04
23118;BME280;11728;50.624;6.014;2022-11-02T19:08:17;98614.72;;;11.81;65.60
23118;BME280;11728;50.624;6.014;2022-11-02T19:13:56;98609.41;;;11.83;65.74
23118;BME280;11728;50.624;6.014;2022-11-02T19:19:17;98602.28;;;11.85;66.06
23118;BME280;11728;50.624;6.014;2022-11-02T19:24:38;98591.69;;;11.85;66.50
23118;BME280;11728;50.624;6.014;2022-11-02T19:29:59;98593.53;;;11.83;66.65
23118;BME280;11728;50.624;6.014;2022-11-02T19:35:21;98585.50;;;11.86;66.81
23118;BME280;11728;50.624;6.014;2022-11-02T19:40:42;98578.38;;;11.89;67.05
23118;BME280;11728;50.624;6.014;2022-11-02T19:46:04;98575.63;;;11.94;67.09
23118;BME280;11728;50.624;6.014;2022-11-02T19:51:27;98570.38;;;11.92;67.35
23118;BME280;11728;50.624;6.014;2022-11-02T19:56:48;98565.97;;;11.91;67.46
23118;BME280;11728;50.624;6.014;2022-11-02T20:02:09;98561.59;;;11.90;67.39
23118;BME280;11728;50.624;6.014;2022-11-02T20:07:30;98550.25;;;11.85;67.62
23118;BME280;11728;50.624;6.014;2022-11-02T20:12:51;98542.22;;;11.88;67.98
23118;BME280;11728;50.624;6.014;2022-11-02T20:18:12;98537.84;;;11.87;68.53
23118;BME280;11728;50.624;6.014;2022-11-02T20:23:33;98524.59;;;11.89;68.85
23118;BME280;11728;50.624;6.014;2022-11-02T20:28:54;98523.63;;;11.91;69.14
23118;BME280;11728;50.624;6.014;2022-11-02T20:34:15;98516.50;;;11.95;69.82
23118;BME280;11728;50.624;6.014;2022-11-02T20:39:36;98515.28;;;12.08;70.26
23118;BME280;11728;50.624;6.014;2022-11-02T20:44:57;98492.28;;;12.10;70.25
23118;BME280;11728;50.624;6.014;2022-11-02T20:50:17;98485.97;;;12.15;70.79
23118;BME280;11728;50.624;6.014;2022-11-02T20:55:38;98485.81;;;12.21;71.29
23118;BME280;11728;50.624;6.014;2022-11-02T21:00:59;98476.84;;;12.27;71.18
23118;BME280;11728;50.624;6.014;2022-11-02T21:06:20;98487.31;;;12.31;71.50
23118;BME280;11728;50.624;6.014;2022-11-02T21:11:41;98467.72;;;12.36;71.55
23118;BME280;11728;50.624;6.014;2022-11-02T21:17:20;98454.59;;;12.33;71.99
23118;BME280;11728;50.624;6.014;2022-11-02T21:22:41;98454.47;;;12.38;72.00
23118;BME280;11728;50.624;6.014;2022-11-02T21:28:03;98438.56;;;12.38;72.23
23118;BME280;11728;50.624;6.014;2022-11-02T21:33:24;98443.03;;;12.36;72.07
23118;BME280;11728;50.624;6.014;2022-11-02T21:38:45;98428.19;;;12.30;72.24
23118;BME280;11728;50.624;6.014;2022-11-02T21:44:08;98435.28;;;12.28;72.58
23118;BME280;11728;50.624;6.014;2022-11-02T21:49:29;98432.69;;;12.27;72.87
23118;BME280;11728;50.624;6.014;2022-11-02T21:54:50;98431.84;;;12.27;73.34
23118;BME280;11728;50.624;6.014;2022-11-02T22:00:11;98424.97;;;12.20;73.79
23118;BME280;11728;50.624;6.014;2022-11-02T22:05:33;98416.19;;;12.18;74.23
23118;BME280;11728;50.624;6.014;2022-11-02T22:11:14;98414.50;;;12.15;74.29
23118;BME280;11728;50.624;6.014;2022-11-02T22:16:40;98414.56;;;12.12;74.17
23118;BME280;11728;50.624;6.014;2022-11-02T22:22:01;98412.09;;;12.06;74.34
23118;BME280;11728;50.624;6.014;2022-11-02T22:27:22;98411.19;;;12.06;74.64
23118;BME280;11728;50.624;6.014;2022-11-02T22:32:43;98402.34;;;12.07;74.39
23118;BME280;11728;50.624;6.014;2022-11-02T22:38:03;98393.69;;;12.02;74.54
23118;BME280;11728;50.624;6.014;2022-11-02T22:43:43;98392.91;;;11.98;75.22
23118;BME280;11728;50.624;6.014;2022-11-02T22:49:05;98400.78;;;12.00;75.23
23118;BME280;11728;50.624;6.014;2022-11-02T22:54:26;98397.56;;;11.89;75.61
23118;BME280;11728;50.624;6.014;2022-11-02T22:59:47;98383.44;;;11.88;76.11
23118;BME280;11728;50.624;6.014;2022-11-02T23:05:08;98387.59;;;11.98;76.08
23118;BME280;11728;50.624;6.014;2022-11-02T23:10:29;98385.75;;;12.02;76.25
23118;BME280;11728;50.624;6.014;2022-11-02T23:16:10;98365.41;;;12.04;76.38
23118;BME280;11728;50.624;6.014;2022-11-02T23:21:46;98367.88;;;12.10;76.51
23118;BME280;11728;50.624;6.014;2022-11-02T23:27:08;98367.81;;;12.11;76.67
23118;BME280;11728;50.624;6.014;2022-11-02T23:32:29;98363.41;;;12.12;76.57
23118;BME280;11728;50.624;6.014;2022-11-02T23:38:00;98348.34;;;12.14;76.81
23118;BME280;11728;50.624;6.014;2022-11-02T23:43:21;98355.47;;;12.12;76.79
23118;BME280;11728;50.624;6.014;2022-11-02T23:48:43;98358.13;;;12.12;76.32
23118;BME280;11728;50.624;6.014;2022-11-02T23:54:03;98351.09;;;12.11;76.03
23118;BME280;11728;50.624;6.014;2022-11-02T23:59:43;98341.59;;;12.04;76.19
